Time;durP1;ratioP1;P1;durP2;ratioP2;P2;SDS_P1;SDS_P2;PMS_P1;PMS_P2;Temp;Humidity;BMP_temperature;BMP_pressure;BME280_temperature;BME280_humidity;BME280_pressure;Samples;Min_cycle;Max_cycle;Signal;HPM_P1;HPM_P2
2022/06/21 00:01:44;;;;;;;;;;;;;;;;;;5035736;28;20368;-78
2022/06/21 00:04:31;;;;;;;;;;;;;;;;;;5047321;28;19909;-78
2022/06/21 00:07:17;;;;;;;;;;;;;;;;;;5047127;28;19912;-79
2022/06/21 00:10:04;;;;;;;;;;;;;;;;;;5042537;28;20309;-78
2022/06/21 00:12:50;;;;;;;;;;;;;;;;;;5037614;28;19920;-78
2022/06/21 00:15:37;;;;;;;;;;;;;;;;;;5049449;28;19943;-79
2022/06/21 00:18:24;;;;;;;;;;;;;;;;;;5040266;28;19912;-78
2022/06/21 00:21:10;;;;;;;;;;;;;;;;;;5046818;28;19925;-79
2022/06/21 00:23:57;;;;;;;;;;;;;;;;;;5049528;28;19916;-77
2022/06/21 00:26:43;;;;;;;;;;;;;;;;;;5045125;28;19920;-78
2022/06/21 00:29:30;;;;;;;;;;;;;;;;;;5044383;28;19924;-78
2022/06/21 00:32:16;;;;;;;;;;;;;;;;;;5048218;28;19912;-79
2022/06/21 00:35:03;;;;;;;;;;;;;;;;;;5047975;28;19909;-77
2022/06/21 00:37:49;;;;;;;;;;;;;;;;;;5038181;28;19925;-78
2022/06/21 00:40:36;;;;;;;;;;;;;;;;;;5047443;28;19920;-78
2022/06/21 00:43:22;;;;;;;;;;;;;;;;;;5046036;28;20334;-78
2022/06/21 00:46:08;;;;;;;;;;;;;;;;;;5025180;28;19920;-77
2022/06/21 00:48:55;;;;;;;;;;;;;;;;;;5038963;28;20384;-78
2022/06/21 00:51:42;;;;;;;;;;;;;;;;;;5043161;28;19909;-79
2022/06/21 00:54:28;;;;;;;;;;;;;;;;;;5040007;28;19928;-79
2022/06/21 00:57:15;;;;;;;;;;;;;;;;;;5037896;28;19920;-79
2022/06/21 01:00:01;;;;;;;;;;;;;;;;;;5047344;28;19909;-79
2022/06/21 01:02:48;;;;;;;;;;;;;;;;;;5046684;28;19913;-79
2022/06/21 01:05:34;;;;;;;;;;;;;;;;;;5045952;28;20300;-79
2022/06/21 01:08:21;;;;;;;;;;;;;;;;;;5036634;28;19909;-78
2022/06/21 01:11:07;;;;;;;;;;;;;;;;;;5045034;28;19912;-79
2022/06/21 01:13:54;;;;;;;;;;;;;;;;;;5044099;28;19917;-79
2022/06/21 01:16:40;;;;;;;;;;;;;;;;;;5038098;28;19917;-78
2022/06/21 01:19:26;;;;;;;;;;;;;;;;;;5042152;28;19913;-78
2022/06/21 01:22:13;;;;;;;;;;;;;;;;;;5051953;28;19912;-77
2022/06/21 01:24:59;;;;;;;;;;;;;;;;;;5034020;28;19919;-78
2022/06/21 01:27:46;;;;;;;;;;;;;;;;;;5052871;28;19908;-78
2022/06/21 01:30:33;;;;;;;;;;;;;;;;;;5051459;28;19909;-78
2022/06/21 01:33:19;;;;;;;;;;;;;;;;;;5040344;28;20440;-78
2022/06/21 01:36:06;;;;;;;;;;;;;;;;;;5044306;28;19917;-78
2022/06/21 01:38:52;;;;;;;;;;;;;;;;;;5044196;28;21060;-78
2022/06/21 01:41:39;;;;;;;;;;;;;;;;;;5050433;28;19912;-76
2022/06/21 01:44:25;;;;;;;;;;;;;;;;;;5045611;28;19909;-78
2022/06/21 01:47:12;;;;;;;;;;;;;;;;;;5048403;28;19917;-78
2022/06/21 01:49:58;;;;;;;;;;;;;;;;;;5042548;28;19909;-77
2022/06/21 01:52:45;;;;;;;;;;;;;;;;;;5043712;28;20276;-77
2022/06/21 01:55:31;;;;;;;;;;;;;;;;;;5044428;28;19917;-78
2022/06/21 01:58:18;;;;;;;;;;;;;;;;;;5039190;28;19959;-77
2022/06/21 02:01:04;;;;;;;;;;;;;;;;;;5039246;28;19921;-77
2022/06/21 02:03:51;;;;;;;;;;;;;;;;;;5047280;28;20475;-77
2022/06/21 02:06:37;;;;;;;;;;;;;;;;;;5048853;28;19916;-78
2022/06/21 02:09:24;;;;;;;;;;;;;;;;;;5047430;28;19921;-77
2022/06/21 02:12:10;;;;;;;;;;;;;;;;;;5043860;28;19919;-78
2022/06/21 02:14:57;;;;;;;;;;;;;;;;;;5047781;28;19913;-78
2022/06/21 02:17:43;;;;;;;;;;;;;;;;;;5048201;28;19931;-78
2022/06/21 02:20:29;;;;;;;;;;;;;;;;;;5042645;28;19916;-78
2022/06/21 02:23:16;;;;;;;;;;;;;;;;;;5044645;28;19917;-78
2022/06/21 02:26:02;;;;;;;;;;;;;;;;;;5034793;28;19939;-78
2022/06/21 02:28:49;;;;;;;;;;;;;;;;;;5035339;28;20237;-77
2022/06/21 02:31:35;;;;;;;;;;;;;;;;;;5046574;28;19913;-77
2022/06/21 02:34:22;;;;;;;;;;;;;;;;;;5041225;28;19909;-78
2022/06/21 02:37:09;;;;;;;;;;;;;;;;;;5024367;28;20456;-76
2022/06/21 02:39:56;;;;;;;;;;;;;;;;;;5028114;28;19917;-77
2022/06/21 02:42:42;;;;;;;;;;;;;;;;;;5045994;28;19913;-77
2022/06/21 02:45:28;;;;;;;;;;;;;;;;;;5044332;28;19924;-77
2022/06/21 02:48:15;;;;;;;;;;;;;;;;;;5036794;28;19920;-78
2022/06/21 02:51:01;;;;;;;;;;;;;;;;;;5040511;28;20405;-77
2022/06/21 02:53:48;;;;;;;;;;;;;;;;;;5042496;28;19928;-77
2022/06/21 02:56:34;;;;;;;;;;;;;;;;;;5042430;28;20672;-78
2022/06/21 02:59:21;;;;;;;;;;;;;;;;;;5044897;28;19919;-78
2022/06/21 03:02:07;;;;;;;;;;;;;;;;;;5042407;28;20395;-78
2022/06/21 03:04:54;;;;;;;;;;;;;;;;;;5041287;28;19918;-78
2022/06/21 03:07:41;;;;;;;;;;;;;;;;;;5048937;28;19916;-77
2022/06/21 03:10:27;;;;;;;;;;;;;;;;;;5045668;28;19909;-78
2022/06/21 03:13:14;;;;;;;;;;;;;;;;;;5044399;28;19921;-77
2022/06/21 03:16:00;;;;;;;;;;;;;;;;;;5050564;28;19909;-77
2022/06/21 03:18:47;;;;;;;;;;;;;;;;;;5044758;28;19946;-78
2022/06/21 03:21:33;;;;;;;;;;;;;;;;;;5044959;28;19913;-77
2022/06/21 03:24:20;;;;;;;;;;;;;;;;;;5023800;28;19915;-78
2022/06/21 03:27:07;;;;;;;;;;;;;;;;;;5036734;28;19975;-79
2022/06/21 03:29:53;;;;;;;;;;;;;;;;;;5029475;28;20361;-80
2022/06/21 03:32:40;;;;;;;;;;;;;;;;;;5038880;28;19931;-77
2022/06/21 03:35:26;;;;;;;;;;;;;;;;;;5037057;28;19915;-79
2022/06/21 03:38:13;;;;;;;;;;;;;;;;;;5024345;28;20627;-76
2022/06/21 03:44:04;;;;;;;;;;;;;;;;;;5038439;28;20377;-77
2022/06/21 03:46:51;;;;;;;;;;;;;;;;;;5044805;28;19913;-78
2022/06/21 03:49:37;;;;;;;;;;;;;;;;;;5043954;28;19915;-77
2022/06/21 03:52:43;;;;;;;;;;;;;;;;;;5046223;28;19919;-77
2022/06/21 03:55:29;;;;;;;;;;;;;;;;;;5043351;28;19931;-78
2022/06/21 03:58:16;;;;;;;;;;;;;;;;;;5043418;28;19920;-78
2022/06/21 04:01:02;;;;;;;;;;;;;;;;;;5034616;28;19938;-77
2022/06/21 04:03:49;;;;;;;;;;;;;;;;;;5028805;28;20011;-78
2022/06/21 04:06:35;;;;;;;;;;;;;;;;;;5047242;28;19909;-77
2022/06/21 04:09:22;;;;;;;;;;;;;;;;;;5049448;28;19909;-79
2022/06/21 04:12:08;;;;;;;;;;;;;;;;;;5042427;28;19909;-76
2022/06/21 04:14:54;;;;;;;;;;;;;;;;;;5043196;28;19962;-78
2022/06/21 04:17:41;;;;;;;;;;;;;;;;;;5037791;28;19928;-77
2022/06/21 04:20:28;;;;;;;;;;;;;;;;;;5040877;28;19932;-78
2022/06/21 04:23:14;;;;;;;;;;;;;;;;;;5040957;28;20324;-78
2022/06/21 04:26:00;;;;;;;;;;;;;;;;;;5040299;28;20387;-77
2022/06/21 04:28:47;;;;;;;;;;;;;;;;;;5048763;28;19916;-77
2022/06/21 04:31:33;;;;;;;;;;;;;;;;;;5035249;28;19912;-75
2022/06/21 04:34:20;;;;;;;;;;;;;;;;;;5042313;28;19916;-77
2022/06/21 04:37:07;;;;;;;;;;;;;;;;;;5036933;28;19918;-77
2022/06/21 04:39:53;;;;;;;;;;;;;;;;;;5042975;28;19939;-76
2022/06/21 04:42:39;;;;;;;;;;;;;;;;;;5037387;28;19914;-77
2022/06/21 04:45:27;;;;;;;;;;;;;;;;;;5023012;28;19919;-77
2022/06/21 04:48:13;;;;;;;;;;;;;;;;;;5043283;28;20605;-76
2022/06/21 04:51:00;;;;;;;;;;;;;;;;;;5041325;28;19927;-76
2022/06/21 04:53:46;;;;;;;;;;;;;;;;;;5039616;28;19924;-77
2022/06/21 04:56:33;;;;;;;;;;;;;;;;;;5039126;28;19917;-77
2022/06/21 04:59:19;;;;;;;;;;;;;;;;;;5043741;28;19960;-77
2022/06/21 05:02:09;;;;;;;;;;;;;;;;;;5033489;28;19990;-79
2022/06/21 05:08:01;;;;;;;;;;;;;;;;;;5044075;28;19919;-77
2022/06/21 05:10:47;;;;;;;;;;;;;;;;;;5035422;28;19913;-77
2022/06/21 05:13:34;;;;;;;;;;;;;;;;;;5039676;28;19919;-76
2022/06/21 05:16:20;;;;;;;;;;;;;;;;;;5044904;28;19909;-76
2022/06/21 05:19:09;;;;;;;;;;;;;;;;;;5033931;28;19916;-77
2022/06/21 05:21:55;;;;;;;;;;;;;;;;;;5041891;28;19913;-77
2022/06/21 05:24:42;;;;;;;;;;;;;;;;;;5047050;28;19909;-77
2022/06/21 05:27:28;;;;;;;;;;;;;;;;;;5042899;28;19915;-77
2022/06/21 05:30:15;;;;;;;;;;;;;;;;;;5042906;28;20297;-77
2022/06/21 05:33:01;;;;;;;;;;;;;;;;;;5036527;28;19913;-77
2022/06/21 05:35:48;;;;;;;;;;;;;;;;;;5040068;28;20454;-77
2022/06/21 05:38:35;;;;;;;;;;;;;;;;;;5025105;28;19924;-77
2022/06/21 05:41:31;;;;;;;;;;;;;;;;;;5041348;28;19915;-77
2022/06/21 05:44:17;;;;;;;;;;;;;;;;;;5030571;28;20579;-77
2022/06/21 05:47:03;;;;;;;;;;;;;;;;;;5045830;28;19916;-78
2022/06/21 05:49:50;;;;;;;;;;;;;;;;;;5039646;28;20276;-78
2022/06/21 05:52:36;;;;;;;;;;;;;;;;;;5047180;28;19913;-76
2022/06/21 05:55:23;;;;;;;;;;;;;;;;;;5042786;28;19929;-77
2022/06/21 05:58:09;;;;;;;;;;;;;;;;;;5028221;28;20372;-76
2022/06/21 06:00:56;;;;;;;;;;;;;;;;;;5041068;28;19913;-75
2022/06/21 06:03:42;;;;;;;;;;;;;;;;;;5033851;28;19932;-76
2022/06/21 06:06:34;;;;;;;;;;;;;;;;;;5044994;28;19917;-76
2022/06/21 06:09:20;;;;;;;;;;;;;;;;;;5046570;28;19924;-76
2022/06/21 06:12:08;;;;;;;;;;;;;;;;;;5048893;28;19915;-75
2022/06/21 06:14:55;;;;;;;;;;;;;;;;;;5045384;28;19916;-76
2022/06/21 06:17:41;;;;;;;;;;;;;;;;;;5039163;28;19925;-76
2022/06/21 06:20:28;;;;;;;;;;;;;;;;;;5041815;28;20279;-76
2022/06/21 06:23:14;;;;;;;;;;;;;;;;;;5049621;28;19913;-78
2022/06/21 06:26:01;;;;;;;;;;;;;;;;;;5041283;28;20281;-77
2022/06/21 06:28:47;;;;;;;;;;;;;;;;;;5041524;28;19923;-76
2022/06/21 06:31:34;;;;;;;;;;;;;;;;;;5038899;28;20341;-77
2022/06/21 06:34:20;;;;;;;;;;;;;;;;;;5045405;28;20391;-75
2022/06/21 06:37:07;;;;;;;;;;;;;;;;;;5046591;28;19932;-77
2022/06/21 06:39:56;;;;;;;;;;;;;;;;;;5043268;28;19908;-75
2022/06/21 06:42:42;;;;;;;;;;;;;;;;;;5041197;28;19913;-78
2022/06/21 06:45:29;;;;;;;;;;;;;;;;;;5041690;28;19913;-77
2022/06/21 06:48:16;;;;;;;;;;;;;;;;;;5041540;28;19920;-79
2022/06/21 06:51:02;;;;;;;;;;;;;;;;;;5039179;28;19931;-77
2022/06/21 06:53:50;;;;;;;;;;;;;;;;;;5044587;28;19925;-78
2022/06/21 06:56:36;;;;;;;;;;;;;;;;;;5044358;28;19928;-77
2022/06/21 06:59:23;;;;;;;;;;;;;;;;;;5041762;28;19917;-77
2022/06/21 07:02:09;;;;;;;;;;;;;;;;;;5045236;28;19913;-78
2022/06/21 07:04:56;;;;;;;;;;;;;;;;;;5043455;28;19917;-77
2022/06/21 07:07:43;;;;;;;;;;;;;;;;;;5041182;28;20376;-76
2022/06/21 07:10:29;;;;;;;;;;;;;;;;;;5043465;28;20388;-75
2022/06/21 07:13:16;;;;;;;;;;;;;;;;;;5043720;28;19924;-77
2022/06/21 07:16:02;;;;;;;;;;;;;;;;;;5043316;28;20270;-76
2022/06/21 07:18:49;;;;;;;;;;;;;;;;;;5040912;28;20286;-76
2022/06/21 07:21:35;;;;;;;;;;;;;;;;;;5032287;28;19916;-76
2022/06/21 07:24:22;;;;;;;;;;;;;;;;;;5042946;28;19919;-77
2022/06/21 07:27:08;;;;;;;;;;;;;;;;;;5039747;28;20276;-75
2022/06/21 07:29:56;;;;;;;;;;;;;;;;;;5041956;28;19916;-77
2022/06/21 07:32:44;;;;;;;;;;;;;;;;;;5041656;28;19909;-76
2022/06/21 07:35:32;;;;;;;;;;;;;;;;;;5034054;28;19909;-76
2022/06/21 07:38:18;;;;;;;;;;;;;;;;;;5045161;28;19932;-76
2022/06/21 07:41:04;;;;;;;;;;;;;;;;;;5042169;28;19942;-77
2022/06/21 07:43:51;;;;;;;;;;;;;;;;;;5045635;28;19912;-76
2022/06/21 07:46:37;;;;;;;;;;;;;;;;;;5042352;28;20377;-75
2022/06/21 07:49:24;;;;;;;;;;;;;;;;;;5043070;28;19919;-78
2022/06/21 07:52:10;;;;;;;;;;;;;;;;;;5040744;28;19994;-76
2022/06/21 07:54:57;;;;;;;;;;;;;;;;;;5039277;28;19921;-76
2022/06/21 07:57:43;;;;;;;;;;;;;;;;;;5045516;28;19928;-76
2022/06/21 08:06:41;;;;;;;;;;;;;;;;;;5044550;28;19924;-76
2022/06/21 08:06:41;;;;;;;;;;;;;;;;;;5036049;28;19917;-77
2022/06/21 08:09:28;;;;;;;;;;;;;;;;;;5031162;28;19923;-75
2022/06/21 08:12:14;;;;;;;;;;;;;;;;;;5043479;28;19912;-75
2022/06/21 08:15:01;;;;;;;;;;;;;;;;;;5047817;28;19915;-75
2022/06/21 08:17:47;;;;;;;;;;;;;;;;;;5045738;28;19929;-77
2022/06/21 08:20:33;;;;;;;;;;;;;;;;;;5030075;28;19912;-75
2022/06/21 08:23:20;;;;;;;;;;;;;;;;;;5046620;28;19909;-74
2022/06/21 08:26:06;;;;;;;;;;;;;;;;;;5041543;28;19912;-74
2022/06/21 08:28:53;;;;;;;;;;;;;;;;;;5046559;28;19928;-75
2022/06/21 08:31:39;;;;;;;;;;;;;;;;;;5044538;28;19913;-75
2022/06/21 08:34:26;;;;;;;;;;;;;;;;;;5042379;28;19913;-74
2022/06/21 08:37:12;;;;;;;;;;;;;;;;;;5042193;28;19917;-74
2022/06/21 08:39:59;;;;;;;;;;;;;;;;;;5041975;28;19916;-77
2022/06/21 08:42:45;;;;;;;;;;;;;;;;;;5040406;28;20040;-76
2022/06/21 08:45:41;;;;;;;;;;;;;;;;;;5027456;28;19913;-76
2022/06/21 08:48:28;;;;;;;;;;;;;;;;;;5039451;28;19920;-77
2022/06/21 08:51:14;;;;;;;;;;;;;;;;;;5044705;28;19913;-77
2022/06/21 08:54:01;;;;;;;;;;;;;;;;;;5043017;28;19920;-76
2022/06/21 08:56:48;;;;;;;;;;;;;;;;;;5039608;28;19913;-77
2022/06/21 08:59:35;;;;;;;;;;;;;;;;;;5039921;28;19917;-76
2022/06/21 09:02:21;;;;;;;;;;;;;;;;;;5043073;28;19916;-77
2022/06/21 09:05:08;;;;;;;;;;;;;;;;;;5037244;28;19932;-80
2022/06/21 09:07:54;;;;;;;;;;;;;;;;;;5039920;28;20377;-81
2022/06/21 09:10:41;;;;;;;;;;;;;;;;;;5024546;28;19913;-84
2022/06/21 09:13:27;;;;;;;;;;;;;;;;;;5037916;28;19920;-82
2022/06/21 09:16:14;;;;;;;;;;;;;;;;;;5047770;28;19919;-82
2022/06/21 09:19:00;;;;;;;;;;;;;;;;;;5035082;28;19917;-83
2022/06/21 09:21:48;;;;;;;;;;;;;;;;;;5041276;28;20353;-83
2022/06/21 09:24:14;;;;;;;;;;;;;;;;;;5031131;28;20419;-83
2022/06/21 09:26:40;;;;;;;;;;;;;;;;;;5029163;28;19913;-83
2022/06/21 09:29:06;;;;;;;;;;;;;;;;;;5030965;28;19930;-83
2022/06/21 09:31:36;;;;;;;;;;;;;;;;;;5040469;28;20439;-83
2022/06/21 09:34:02;;;;;;;;;;;;;;;;;;5044421;28;19964;-83
2022/06/21 09:36:48;;;;;;;;;;;;;;;;;;5030855;28;20335;-83
2022/06/21 09:39:34;;;;;;;;;;;;;;;;;;5040014;28;19913;-83
2022/06/21 09:42:21;;;;;;;;;;;;;;;;;;5043727;28;19913;-82
2022/06/21 09:45:07;;;;;;;;;;;;;;;;;;5050827;28;19912;-84
2022/06/21 09:47:53;;;;;;;;;;;;;;;;;;5032904;28;19913;-83
2022/06/21 09:50:39;;;;;;;;;;;;;;;;;;5042678;28;19920;-82
2022/06/21 09:53:25;;;;;;;;;;;;;;;;;;5048769;28;19908;-82
2022/06/21 09:56:11;;;;;;;;;;;;;;;;;;5051245;28;19919;-82
2022/06/21 09:58:58;;;;;;;;;;;;;;;;;;5050770;28;19924;-84
2022/06/21 10:01:44;;;;;;;;;;;;;;;;;;5019180;28;20425;-83
2022/06/21 10:04:30;;;;;;;;;;;;;;;;;;5047090;28;19909;-82
2022/06/21 10:07:16;;;;;;;;;;;;;;;;;;5034170;28;19918;-82
2022/06/21 10:10:02;;;;;;;;;;;;;;;;;;5043664;28;19915;-82
2022/06/21 10:12:48;;;;;;;;;;;;;;;;;;5047130;28;19920;-82
2022/06/21 10:15:34;;;;;;;;;;;;;;;;;;5051521;28;19917;-82
2022/06/21 10:18:21;;;;;;;;;;;;;;;;;;5046214;28;20316;-82
2022/06/21 10:21:09;;;;;;;;;;;;;;;;;;5052274;28;19909;-82
2022/06/21 10:23:55;;;;;;;;;;;;;;;;;;5039560;28;19909;-82
2022/06/21 10:26:41;;;;;;;;;;;;;;;;;;5037711;28;19909;-83
2022/06/21 10:29:29;;;;;;;;;;;;;;;;;;5045562;28;19916;-82
2022/06/21 10:32:15;;;;;;;;;;;;;;;;;;5035701;28;20009;-82
2022/06/21 10:35:01;;;;;;;;;;;;;;;;;;5040663;28;19912;-82
2022/06/21 10:37:48;;;;;;;;;;;;;;;;;;5041625;28;20392;-82
2022/06/21 10:40:34;;;;;;;;;;;;;;;;;;5045928;28;19924;-82
2022/06/21 10:43:23;;;;;;;;;;;;;;;;;;5027696;28;19924;-82
2022/06/21 10:46:09;;;;;;;;;;;;;;;;;;5048627;28;19916;-82
2022/06/21 10:48:55;;;;;;;;;;;;;;;;;;5025220;28;20020;-82
2022/06/21 10:51:41;;;;;;;;;;;;;;;;;;5033441;28;19909;-82
2022/06/21 10:54:27;;;;;;;;;;;;;;;;;;5048601;28;20433;-82
2022/06/21 10:57:13;;;;;;;;;;;;;;;;;;5048242;28;20238;-82
2022/06/21 11:03:06;;;;;;;;;;;;;;;;;;5036842;28;19961;-82
2022/06/21 11:05:52;;;;;;;;;;;;;;;;;;5048502;28;19912;-82
2022/06/21 11:08:38;;;;;;;;;;;;;;;;;;5026092;28;19913;-81
2022/06/21 11:11:24;;;;;;;;;;;;;;;;;;5048369;28;19913;-81
2022/06/21 11:14:11;;;;;;;;;;;;;;;;;;5041742;28;20592;-83
2022/06/21 11:16:58;;;;;;;;;;;;;;;;;;5047837;28;19912;-80
2022/06/21 11:19:44;;;;;;;;;;;;;;;;;;5032505;28;19920;-83
2022/06/21 11:22:30;;;;;;;;;;;;;;;;;;5043081;28;19920;-77
2022/06/21 11:25:16;;;;;;;;;;;;;;;;;;5045669;28;19948;-75
2022/06/21 11:28:02;;;;;;;;;;;;;;;;;;5047551;28;19908;-78
2022/06/21 11:30:48;;;;;;;;;;;;;;;;;;5039544;28;19913;-75
2022/06/21 11:33:15;;;;;;;;;;;;;;;;;;5042229;28;19917;-78
2022/06/21 11:35:41;;;;;;;;;;;;;;;;;;5046688;28;19962;-78
2022/06/21 11:38:08;;;;;;;;;;;;;;;;;;5028846;28;19932;-76
2022/06/21 11:40:34;;;;;;;;;;;;;;;;;;5044617;28;19963;-77
2022/06/21 11:43:03;;;;;;;;;;;;;;;;;;5042092;28;20016;-76
2022/06/21 11:45:30;;;;;;;;;;;;;;;;;;5042373;28;20353;-76
2022/06/21 11:47:57;;;;;;;;;;;;;;;;;;5042877;28;20028;-76
2022/06/21 11:50:23;;;;;;;;;;;;;;;;;;5043357;28;20013;-76
2022/06/21 11:52:49;;;;;;;;;;;;;;;;;;5020440;28;19956;-74
2022/06/21 11:55:16;;;;;;;;;;;;;;;;;;5023144;28;19964;-76
2022/06/21 11:57:42;;;;;;;;;;;;;;;;;;5043342;28;20384;-75
2022/06/21 12:00:08;;;;;;;;;;;;;;;;;;5044545;28;19959;-76
2022/06/21 12:02:34;;;;;;;;;;;;;;;;;;5042596;28;19956;-75
2022/06/21 12:05:01;;;;;;;;;;;;;;;;;;5041413;28;19940;-76
2022/06/21 12:07:27;;;;;;;;;;;;;;;;;;5026778;28;19953;-76
2022/06/21 12:09:55;;;;;;;;;;;;;;;;;;5020994;28;19945;-76
2022/06/21 12:12:21;;;;;;;;;;;;;;;;;;5017327;28;19957;-76
2022/06/21 12:14:53;;;;;;;;;;;;;;;;;;5035695;28;19925;-75
2022/06/21 12:17:22;;;;;;;;;;;;;;;;;;5039160;28;19963;-76
2022/06/21 12:19:48;;;;;;;;;;;;;;;;;;5023192;28;20045;-76
2022/06/21 12:22:15;;;;;;;;;;;;;;;;;;5012403;28;20004;-76
2022/06/21 12:24:41;;;;;;;;;;;;;;;;;;5029130;28;19953;-77
2022/06/21 12:27:07;;;;;;;;;;;;;;;;;;5031197;28;19956;-76
2022/06/21 12:29:33;;;;;;;;;;;;;;;;;;5025849;28;19948;-76
2022/06/21 12:32:20;;;;;;;;;;;;;;;;;;5026648;28;19925;-77
2022/06/21 12:35:07;;;;;;;;;;;;;;;;;;5025994;28;19924;-76
2022/06/21 12:37:53;;;;;;;;;;;;;;;;;;5038797;28;19944;-76
2022/06/21 12:40:39;;;;;;;;;;;;;;;;;;5035958;28;19926;-76
2022/06/21 12:43:15;;;;;;;;;;;;;;;;;;5020789;28;19925;-75
2022/06/21 12:45:51;;;;;;;;;;;;;;;;;;5019844;28;19917;-74
2022/06/21 12:48:27;;;;;;;;;;;;;;;;;;5027003;28;19924;-75
2022/06/21 12:51:15;;;;;;;;;;;;;;;;;;5023551;28;19924;-75
2022/06/21 12:53:51;;;;;;;;;;;;;;;;;;5029811;28;19940;-75
2022/06/21 12:56:18;;;;;;;;;;;;;;;;;;5023783;28;20009;-74
2022/06/21 12:58:44;;;;;;;;;;;;;;;;;;5018315;28;19930;-75
2022/06/21 13:01:10;;;;;;;;;;;;;;;;;;5044354;28;20448;-75
2022/06/21 13:03:37;;;;;;;;;;;;;;;;;;5048959;28;20558;-75
2022/06/21 13:06:03;;;;;;;;;;;;;;;;;;5027723;28;19990;-75
2022/06/21 13:08:30;;;;;;;;;;;;;;;;;;5045550;28;19943;-77
2022/06/21 13:10:56;;;;;;;;;;;;;;;;;;5049595;28;19921;-75
2022/06/21 13:13:23;;;;;;;;;;;;;;;;;;5054827;28;20780;-75
2022/06/21 13:15:49;;;;;;;;;;;;;;;;;;5036132;28;19952;-77
2022/06/21 13:18:15;;;;;;;;;;;;;;;;;;5025068;28;20396;-76
2022/06/21 13:20:41;;;;;;;;;;;;;;;;;;5026158;28;19952;-76
2022/06/21 13:23:08;;;;;;;;;;;;;;;;;;5027734;28;19964;-75
2022/06/21 13:25:34;;;;;;;;;;;;;;;;;;5025896;28;19969;-74
2022/06/21 13:28:00;;;;;;;;;;;;;;;;;;5026957;28;19940;-75
2022/06/21 13:30:30;;;;;;;;;;;;;;;;;;5040757;28;19955;-75
2022/06/21 13:32:56;;;;;;;;;;;;;;;;;;5038208;28;19952;-75
2022/06/21 13:35:22;;;;;;;;;;;;;;;;;;5046034;28;19975;-74
2022/06/21 13:37:48;;;;;;;;;;;;;;;;;;5039189;28;19968;-74
2022/06/21 13:40:14;;;;;;;;;;;;;;;;;;5011336;28;19964;-75
2022/06/21 13:42:41;;;;;;;;;;;;;;;;;;5026156;28;19971;-76
2022/06/21 13:45:07;;;;;;;;;;;;;;;;;;5024250;28;20352;-74
2022/06/21 13:47:34;;;;;;;;;;;;;;;;;;5021550;28;19960;-80
2022/06/21 13:50:00;;;;;;;;;;;;;;;;;;5011730;28;19921;-76
2022/06/21 13:52:26;;;;;;;;;;;;;;;;;;5024738;28;20417;-75
2022/06/21 13:54:52;;;;;;;;;;;;;;;;;;5043396;28;20383;-77
2022/06/21 13:57:19;;;;;;;;;;;;;;;;;;5044265;28;19960;-74
2022/06/21 13:59:48;;;;;;;;;;;;;;;;;;5046528;28;19967;-76
2022/06/21 14:02:16;;;;;;;;;;;;;;;;;;5051713;28;20407;-74
2022/06/21 14:04:43;;;;;;;;;;;;;;;;;;5051379;28;19956;-74
2022/06/21 14:07:11;;;;;;;;;;;;;;;;;;5048143;28;19960;-75
2022/06/21 14:09:37;;;;;;;;;;;;;;;;;;5049796;28;20609;-74
2022/06/21 14:12:03;;;;;;;;;;;;;;;;;;5043378;28;19955;-74
2022/06/21 14:14:30;;;;;;;;;;;;;;;;;;5043252;28;19967;-77
2022/06/21 14:16:56;;;;;;;;;;;;;;;;;;5039666;28;19971;-75
2022/06/21 14:19:22;;;;;;;;;;;;;;;;;;5049895;28;19951;-75
2022/06/21 14:21:49;;;;;;;;;;;;;;;;;;5050705;28;19952;-76
2022/06/21 14:24:15;;;;;;;;;;;;;;;;;;5040269;28;19948;-75
2022/06/21 14:26:41;;;;;;;;;;;;;;;;;;5027507;28;19953;-77
2022/06/21 14:29:08;;;;;;;;;;;;;;;;;;5048515;28;19959;-75
2022/06/21 14:31:34;;;;;;;;;;;;;;;;;;5031320;28;19913;-77
2022/06/21 14:34:00;;;;;;;;;;;;;;;;;;5049667;28;19941;-74
2022/06/21 14:36:26;;;;;;;;;;;;;;;;;;5042885;28;20326;-77
2022/06/21 14:38:52;;;;;;;;;;;;;;;;;;5047148;28;19967;-74
2022/06/21 14:41:19;;;;;;;;;;;;;;;;;;5038140;28;20104;-76
2022/06/21 14:43:45;;;;;;;;;;;;;;;;;;5046268;28;19960;-75
2022/06/21 14:46:11;;;;;;;;;;;;;;;;;;5042622;28;19957;-75
2022/06/21 14:48:37;;;;;;;;;;;;;;;;;;5046186;28;20341;-76
2022/06/21 14:51:04;;;;;;;;;;;;;;;;;;5042366;28;19949;-76
2022/06/21 14:53:30;;;;;;;;;;;;;;;;;;5045396;28;19960;-75
2022/06/21 14:55:56;;;;;;;;;;;;;;;;;;5043508;28;19963;-76
2022/06/21 14:58:22;;;;;;;;;;;;;;;;;;5030108;28;19949;-76
2022/06/21 15:00:49;;;;;;;;;;;;;;;;;;5046104;28;19955;-76
2022/06/21 15:03:15;;;;;;;;;;;;;;;;;;5025156;28;19963;-76
2022/06/21 15:05:41;;;;;;;;;;;;;;;;;;5028614;28;19964;-77
2022/06/21 15:08:07;;;;;;;;;;;;;;;;;;5027422;28;19971;-78
2022/06/21 15:10:33;;;;;;;;;;;;;;;;;;5036525;28;20043;-78
2022/06/21 15:13:00;;;;;;;;;;;;;;;;;;5041456;28;19967;-76
2022/06/21 15:15:26;;;;;;;;;;;;;;;;;;5030362;28;19963;-76
2022/06/21 15:17:52;;;;;;;;;;;;;;;;;;5016477;28;19956;-75
2022/06/21 15:20:19;;;;;;;;;;;;;;;;;;5030982;28;19971;-77
2022/06/21 15:22:45;;;;;;;;;;;;;;;;;;5029142;28;19959;-77
2022/06/21 15:25:12;;;;;;;;;;;;;;;;;;5036351;28;19937;-77
2022/06/21 15:27:38;;;;;;;;;;;;;;;;;;5038526;28;19956;-75
2022/06/21 15:30:04;;;;;;;;;;;;;;;;;;5026728;28;19970;-76
2022/06/21 15:32:30;;;;;;;;;;;;;;;;;;5044563;28;19962;-77
2022/06/21 15:34:56;;;;;;;;;;;;;;;;;;5038501;28;19964;-76
2022/06/21 15:37:24;;;;;;;;;;;;;;;;;;5029431;28;19967;-77
2022/06/21 15:39:51;;;;;;;;;;;;;;;;;;5026810;28;20346;-76
2022/06/21 15:42:17;;;;;;;;;;;;;;;;;;5041573;28;20385;-78
2022/06/21 15:44:43;;;;;;;;;;;;;;;;;;5035217;28;19921;-77
2022/06/21 15:50:12;;;;;;;;;;;;;;;;;;5034162;28;21212;-77
2022/06/21 15:52:39;;;;;;;;;;;;;;;;;;5042475;28;20472;-77
2022/06/21 15:55:06;;;;;;;;;;;;;;;;;;5038485;28;19972;-76
2022/06/21 15:57:32;;;;;;;;;;;;;;;;;;5044883;28;20415;-76
2022/06/21 15:59:58;;;;;;;;;;;;;;;;;;5043971;28;20009;-76
2022/06/21 16:02:24;;;;;;;;;;;;;;;;;;5044202;28;20450;-77
2022/06/21 16:04:51;;;;;;;;;;;;;;;;;;5044017;28;20434;-77
2022/06/21 16:07:17;;;;;;;;;;;;;;;;;;5040933;28;20006;-76
2022/06/21 16:09:43;;;;;;;;;;;;;;;;;;5042464;28;19967;-75
2022/06/21 16:12:09;;;;;;;;;;;;;;;;;;5039928;28;20383;-76
2022/06/21 16:14:36;;;;;;;;;;;;;;;;;;5042074;28;20046;-75
2022/06/21 16:17:02;;;;;;;;;;;;;;;;;;5044144;28;19955;-75
2022/06/21 16:19:28;;;;;;;;;;;;;;;;;;5043582;28;19951;-75
2022/06/21 16:21:54;;;;;;;;;;;;;;;;;;5045444;28;21165;-75
2022/06/21 16:24:22;;;;;;;;;;;;;;;;;;5041057;28;20332;-76
2022/06/21 16:26:48;;;;;;;;;;;;;;;;;;5041405;28;19955;-75
2022/06/21 16:29:14;;;;;;;;;;;;;;;;;;5041212;28;19956;-75
2022/06/21 16:34:25;;;;;;;;;;;;;;;;;;5017601;28;19953;-75
2022/06/21 16:36:51;;;;;;;;;;;;;;;;;;5020998;28;20413;-76
2022/06/21 16:39:18;;;;;;;;;;;;;;;;;;5030273;28;19963;-76
2022/06/21 16:44:30;;;;;;;;;;;;;;;;;;5021799;28;19921;-75
2022/06/21 16:46:56;;;;;;;;;;;;;;;;;;5029939;28;19964;-75
2022/06/21 16:49:23;;;;;;;;;;;;;;;;;;5033486;28;19968;-76
2022/06/21 16:51:49;;;;;;;;;;;;;;;;;;5038290;28;19956;-75
2022/06/21 16:54:15;;;;;;;;;;;;;;;;;;5029561;28;20030;-74
2022/06/21 16:56:41;;;;;;;;;;;;;;;;;;5040506;28;19963;-74
2022/06/21 16:59:07;;;;;;;;;;;;;;;;;;5021625;28;19964;-75
2022/06/21 17:01:33;;;;;;;;;;;;;;;;;;5016567;28;20014;-75
2022/06/21 17:04:00;;;;;;;;;;;;;;;;;;5019614;28;20429;-77
2022/06/21 17:06:26;;;;;;;;;;;;;;;;;;5020723;28;20080;-74
2022/06/21 17:08:52;;;;;;;;;;;;;;;;;;5020320;28;19955;-77
2022/06/21 17:11:27;;;;;;;;;;;;;;;;;;5019133;28;20007;-77
2022/06/21 17:13:53;;;;;;;;;;;;;;;;;;5019884;28;20461;-77
2022/06/21 17:16:39;;;;;;;;;;;;;;;;;;5015384;28;19921;-76
2022/06/21 17:19:16;;;;;;;;;;;;;;;;;;5022345;28;20389;-75
2022/06/21 17:21:52;;;;;;;;;;;;;;;;;;5009639;28;20459;-76
2022/06/21 17:24:28;;;;;;;;;;;;;;;;;;5015351;28;19921;-76
2022/06/21 17:27:04;;;;;;;;;;;;;;;;;;5018027;28;19924;-75
2022/06/21 17:29:32;;;;;;;;;;;;;;;;;;5011384;28;19936;-76
2022/06/21 17:32:08;;;;;;;;;;;;;;;;;;5029354;28;19931;-77
2022/06/21 17:34:35;;;;;;;;;;;;;;;;;;5042106;28;19978;-76
2022/06/21 17:37:11;;;;;;;;;;;;;;;;;;5031705;28;19923;-76
2022/06/21 17:39:37;;;;;;;;;;;;;;;;;;5033138;28;19968;-76
2022/06/21 17:42:13;;;;;;;;;;;;;;;;;;5045199;28;20289;-77
2022/06/21 17:44:40;;;;;;;;;;;;;;;;;;5025642;28;20448;-75
2022/06/21 17:47:14;;;;;;;;;;;;;;;;;;5033205;28;19913;-76
2022/06/21 17:49:40;;;;;;;;;;;;;;;;;;5031302;28;20380;-75
2022/06/21 17:52:09;;;;;;;;;;;;;;;;;;5030671;28;19924;-76
2022/06/21 17:54:37;;;;;;;;;;;;;;;;;;5043999;28;19960;-77
2022/06/21 17:57:04;;;;;;;;;;;;;;;;;;5049005;28;20713;-75
2022/06/21 17:59:31;;;;;;;;;;;;;;;;;;5042722;28;19956;-75
2022/06/21 18:01:57;;;;;;;;;;;;;;;;;;5045696;28;19944;-76
2022/06/21 18:04:23;;;;;;;;;;;;;;;;;;5044841;28;20385;-75
2022/06/21 18:06:49;;;;;;;;;;;;;;;;;;5045564;28;19925;-75
2022/06/21 18:09:15;;;;;;;;;;;;;;;;;;5042776;28;19996;-77
2022/06/21 18:11:42;;;;;;;;;;;;;;;;;;5037087;28;19952;-77
2022/06/21 18:14:08;;;;;;;;;;;;;;;;;;5041729;28;19956;-75
2022/06/21 18:16:34;;;;;;;;;;;;;;;;;;5042399;28;19949;-76
2022/06/21 18:19:00;;;;;;;;;;;;;;;;;;5044803;28;19921;-76
2022/06/21 18:21:26;;;;;;;;;;;;;;;;;;5030186;28;19917;-77
2022/06/21 18:23:53;;;;;;;;;;;;;;;;;;5033607;28;19947;-77
2022/06/21 18:26:19;;;;;;;;;;;;;;;;;;5032848;28;20339;-75